Аэропорт: Ужгород. Ужгород

ICAO: UKLU

METAR:
2019/05/26 14:00
UKLU 261400Z VRB03MPS 9999 FEW///TCU 23/14 Q1014 R10/090070 NOSIG
METAR:
2019/04/25 06:24
TAF TAF UKLU 250504Z 2506/2615 12005MPS 9999 NSC 
      TEMPO 2506/2512 15007G12MPS SCT040